Time;durP1;ratioP1;P1;durP2;ratioP2;P2;SDS_P1;SDS_P2;PMS_P1;PMS_P2;Temp;Humidity;BMP_temperature;BMP_pressure;BME280_temperature;BME280_humidity;BME280_pressure;Samples;Min_cycle;Max_cycle;Signal;HPM_P1;HPM_P2
2022/03/26 00:02:20;;;;;;;19.08;7.68;;;;;;;;;;5049529;28;20056;-80
2022/03/26 00:04:46;;;;;;;16.73;8.18;;;;;;;;;;5052310;28;20026;-80
2022/03/26 00:07:12;;;;;;;26.23;10.02;;;;;;;;;;5051379;28;20036;-79
2022/03/26 00:09:38;;;;;;;23.15;9.95;;;;;;;;;;5053064;28;20051;-79
2022/03/26 00:12:04;;;;;;;19.00;8.15;;;;;;;;;;5047487;28;21627;-79
2022/03/26 00:14:31;;;;;;;31.88;8.07;;;;;;;;;;5048816;28;20018;-80
2022/03/26 00:16:56;;;;;;;21.70;9.52;;;;;;;;;;5060993;28;20036;-79
2022/03/26 00:19:22;;;;;;;24.05;9.18;;;;;;;;;;5046717;28;20277;-80
2022/03/26 00:21:48;;;;;;;30.70;9.60;;;;;;;;;;5050479;28;20029;-79
2022/03/26 00:24:15;;;;;;;30.13;10.13;;;;;;;;;;5046541;28;20029;-80
2022/03/26 00:26:41;;;;;;;16.58;8.68;;;;;;;;;;5045833;28;20709;-79
2022/03/26 00:29:08;;;;;;;21.45;8.55;;;;;;;;;;5050589;28;20028;-79
2022/03/26 00:31:34;;;;;;;19.70;8.25;;;;;;;;;;5049892;28;20079;-79
2022/03/26 00:34:00;;;;;;;30.10;10.25;;;;;;;;;;5050171;28;20695;-80
2022/03/26 00:36:27;;;;;;;26.70;8.95;;;;;;;;;;5057569;28;20026;-79
2022/03/26 00:38:53;;;;;;;24.35;9.30;;;;;;;;;;5049374;28;20024;-79
2022/03/26 00:41:19;;;;;;;24.08;9.07;;;;;;;;;;5054486;28;20028;-79
2022/03/26 00:43:45;;;;;;;22.05;8.07;;;;;;;;;;5049357;28;20074;-79
2022/03/26 00:46:11;;;;;;;20.30;10.05;;;;;;;;;;5053278;28;20025;-79
2022/03/26 00:48:37;;;;;;;18.77;8.43;;;;;;;;;;5050683;28;20048;-79
2022/03/26 00:51:03;;;;;;;25.95;8.50;;;;;;;;;;5054312;28;20481;-79
2022/03/26 00:53:29;;;;;;;20.33;7.95;;;;;;;;;;5051134;28;20445;-79
2022/03/26 00:55:55;;;;;;;23.60;8.60;;;;;;;;;;5049011;28;20064;-79
2022/03/26 00:58:21;;;;;;;23.33;8.95;;;;;;;;;;5046437;28;20037;-79
2022/03/26 01:00:47;;;;;;;22.90;9.55;;;;;;;;;;5053553;28;20096;-79
2022/03/26 01:03:15;;;;;;;27.23;10.02;;;;;;;;;;5049755;28;20021;-79
2022/03/26 01:05:41;;;;;;;18.60;7.68;;;;;;;;;;5049772;28;20047;-79
2022/03/26 01:08:07;;;;;;;18.05;7.55;;;;;;;;;;5049937;28;20029;-79
2022/03/26 01:10:33;;;;;;;20.70;7.88;;;;;;;;;;5053594;28;21464;-79
2022/03/26 01:12:59;;;;;;;20.17;8.07;;;;;;;;;;5045650;28;20029;-80
2022/03/26 01:15:25;;;;;;;18.48;7.57;;;;;;;;;;5043625;28;20025;-79
2022/03/26 01:17:51;;;;;;;22.88;9.52;;;;;;;;;;5043393;28;20117;-79
2022/03/26 01:20:17;;;;;;;23.30;9.80;;;;;;;;;;5052326;28;20051;-80
2022/03/26 01:22:44;;;;;;;17.27;9.00;;;;;;;;;;5053540;28;20036;-80
2022/03/26 01:25:11;;;;;;;20.80;9.13;;;;;;;;;;5049558;28;20029;-80
2022/03/26 01:27:37;;;;;;;16.70;7.68;;;;;;;;;;5051467;28;20037;-79
2022/03/26 01:30:03;;;;;;;20.75;8.82;;;;;;;;;;5044029;28;20037;-79
2022/03/26 01:32:29;;;;;;;21.80;9.50;;;;;;;;;;5052985;28;20033;-79
2022/03/26 01:34:55;;;;;;;21.17;8.77;;;;;;;;;;5056409;28;20029;-79
2022/03/26 01:37:21;;;;;;;17.73;9.10;;;;;;;;;;5053306;28;20022;-79
2022/03/26 01:39:47;;;;;;;15.55;7.15;;;;;;;;;;5049741;28;20112;-79
2022/03/26 01:42:13;;;;;;;26.13;9.18;;;;;;;;;;5056375;28;20200;-79
2022/03/26 01:44:40;;;;;;;20.60;8.15;;;;;;;;;;5048086;28;20036;-80
2022/03/26 01:47:06;;;;;;;25.02;7.70;;;;;;;;;;5045789;28;20031;-79
2022/03/26 01:49:32;;;;;;;20.23;9.35;;;;;;;;;;5051673;28;20030;-80
2022/03/26 01:51:58;;;;;;;20.95;8.80;;;;;;;;;;5053007;28;20033;-79
2022/03/26 01:54:26;;;;;;;21.38;8.45;;;0.80;99.90;;;;;;5056963;28;20032;-80
2022/03/26 01:56:52;;;;;;;19.20;7.53;;;;;;;;;;5054136;28;20495;-80
2022/03/26 01:59:19;;;;;;;21.55;8.40;;;;;;;;;;5055667;28;20025;-79
2022/03/26 02:01:45;;;;;;;15.88;7.68;;;;;;;;;;5050987;28;20031;-79
2022/03/26 02:04:12;;;;;;;22.10;9.85;;;;;;;;;;5049067;28;20377;-80
2022/03/26 02:06:39;;;;;;;11.43;6.32;;;;;;;;;;5053901;28;20101;-80
2022/03/26 02:09:06;;;;;;;20.02;8.77;;;;;;;;;;5047459;28;20025;-80
2022/03/26 02:11:33;;;;;;;17.48;8.18;;;;;;;;;;5048458;28;20037;-80
2022/03/26 02:13:59;;;;;;;22.98;9.25;;;;;;;;;;5045122;28;20036;-79
2022/03/26 02:16:26;;;;;;;21.42;8.60;;;;;;;;;;5050443;28;20083;-79
2022/03/26 02:18:53;;;;;;;22.60;8.10;;;;;;;;;;5049441;28;20043;-80
2022/03/26 02:21:20;;;;;;;17.00;7.13;;;;;;;;;;5048746;28;20018;-80
2022/03/26 02:23:48;;;;;;;22.10;8.20;;;;;;;;;;5052669;28;20036;-80
2022/03/26 02:26:19;;;;;;;21.55;7.03;;;;;;;;;;5043680;28;20029;-80
2022/03/26 02:28:46;;;;;;;23.38;8.43;;;;;;;;;;5054597;28;20032;-79
2022/03/26 02:31:12;;;;;;;18.45;7.82;;;;;;;;;;5051408;28;20059;-80
2022/03/26 02:33:38;;;;;;;15.25;7.05;;;;;;;;;;5046209;28;20032;-80
2022/03/26 02:36:04;;;;;;;17.02;8.43;;;;;;;;;;5056421;28;20033;-79
2022/03/26 02:38:30;;;;;;;18.00;8.30;;;;;;;;;;5061548;28;20536;-80
2022/03/26 02:40:56;;;;;;;16.08;6.88;;;;;;;;;;5061332;28;20033;-79
2022/03/26 02:43:22;;;;;;;17.13;6.07;;;;;;;;;;5057015;28;20499;-79
2022/03/26 02:45:48;;;;;;;20.55;8.68;;;;;;;;;;5061354;28;20040;-79
2022/03/26 02:48:14;;;;;;;21.58;7.85;;;;;;;;;;5055811;28;20452;-80
2022/03/26 02:50:41;;;;;;;23.00;7.43;;;;;;;;;;5062216;28;20045;-79
2022/03/26 02:53:07;;;;;;;20.25;7.43;;;;;;;;;;5050642;28;20031;-79
2022/03/26 02:55:34;;;;;;;18.40;7.05;;;;;;;;;;5052583;28;20088;-79
2022/03/26 02:58:00;;;;;;;16.35;6.13;;;;;;;;;;5051922;28;20041;-80
2022/03/26 03:00:26;;;;;;;16.70;5.93;;;;;;;;;;5056826;28;20043;-81
2022/03/26 03:02:52;;;;;;;24.42;9.35;;;;;;;;;;5049799;28;20055;-80
2022/03/26 03:05:18;;;;;;;22.23;7.10;;;;;;;;;;5051176;28;20037;-80
2022/03/26 03:07:45;;;;;;;17.13;8.57;;;;;;;;;;5051131;28;20067;-80
2022/03/26 03:10:12;;;;;;;17.33;7.50;;;;;;;;;;5038633;28;20033;-80
2022/03/26 03:12:38;;;;;;;18.67;8.63;;;;;;;;;;5050696;28;20030;-80
2022/03/26 03:15:05;;;;;;;17.38;6.78;;;;;;;;;;5052951;28;20027;-79
2022/03/26 03:17:35;;;;;;;18.60;6.78;;;;;;;;;;5049038;28;20071;-79
2022/03/26 03:20:01;;;;;;;22.23;8.05;;;;;;;;;;5050847;28;20025;-80
2022/03/26 03:22:27;;;;;;;23.45;9.70;;;;;;;;;;5051566;28;20067;-79
2022/03/26 03:24:53;;;;;;;24.08;8.10;;;;;;;;;;5052906;28;20045;-79
2022/03/26 03:27:19;;;;;;;17.58;6.88;;;;;;;;;;5041425;28;20047;-80
2022/03/26 03:29:45;;;;;;;20.65;7.40;;;;;;;;;;5052556;28;20036;-80
2022/03/26 03:32:12;;;;;;;24.73;7.47;;;;;;;;;;5045256;28;20067;-80
2022/03/26 03:34:38;;;;;;;15.00;6.68;;;;;;;;;;5046525;28;20037;-79
2022/03/26 03:37:03;;;;;;;20.67;6.28;;;0.60;99.90;;;;;;5050258;28;20040;-79
2022/03/26 03:39:29;;;;;;;19.63;7.32;;;;;;;;;;5045636;28;20026;-80
2022/03/26 03:41:55;;;;;;;19.17;7.55;;;;;;;;;;5046515;28;20069;-80
2022/03/26 03:44:21;;;;;;;23.42;8.57;;;;;;;;;;5054569;28;20036;-80
2022/03/26 03:46:47;;;;;;;19.20;7.32;;;;;;;;;;5048099;28;20037;-80
2022/03/26 03:49:13;;;;;;;15.73;7.13;;;;;;;;;;5056220;28;20036;-80
2022/03/26 03:51:39;;;;;;;23.30;7.10;;;;;;;;;;5050034;28;20041;-80
2022/03/26 03:54:06;;;;;;;17.33;6.93;;;;;;;;;;5051961;28;20114;-80
2022/03/26 03:56:32;;;;;;;17.55;7.88;;;;;;;;;;5049753;28;20021;-80
2022/03/26 03:58:57;;;;;;;20.08;7.43;;;;;;;;;;5050449;28;20041;-80
2022/03/26 04:01:23;;;;;;;16.90;7.25;;;;;;;;;;5054050;28;20021;-80
2022/03/26 04:03:49;;;;;;;16.02;7.18;;;;;;;;;;5046689;28;20101;-80
2022/03/26 04:06:16;;;;;;;23.20;9.07;;;;;;;;;;5047055;28;20068;-79
2022/03/26 04:08:42;;;;;;;19.13;9.13;;;;;;;;;;5043263;28;20025;-80
2022/03/26 04:11:08;;;;;;;14.60;6.43;;;;;;;;;;5049232;28;20048;-81
2022/03/26 04:13:34;;;;;;;15.80;6.35;;;;;;;;;;5040413;28;20404;-80
2022/03/26 04:16:00;;;;;;;20.05;8.00;;;;;;;;;;5048373;28;20028;-80
2022/03/26 04:18:26;;;;;;;15.18;6.68;;;;;;;;;;5046262;28;20036;-80
2022/03/26 04:20:53;;;;;;;19.52;7.93;;;;;;;;;;5046830;28;20037;-80
2022/03/26 04:23:20;;;;;;;14.68;5.40;;;;;;;;;;5050324;28;20479;-80
2022/03/26 04:25:46;;;;;;;21.65;7.45;;;;;;;;;;5047995;28;20063;-80
2022/03/26 04:28:12;;;;;;;13.68;6.13;;;;;;;;;;5040308;28;20071;-80
2022/03/26 04:30:38;;;;;;;14.80;6.93;;;;;;;;;;5042808;28;20517;-79
2022/03/26 04:33:04;;;;;;;21.60;6.72;;;;;;;;;;5043131;28;20037;-80
2022/03/26 04:35:31;;;;;;;16.58;7.20;;;;;;;;;;5043406;28;20492;-79
2022/03/26 04:37:57;;;;;;;23.75;6.75;;;;;;;;;;5044091;28;20026;-80
2022/03/26 04:40:23;;;;;;;18.40;7.40;;;;;;;;;;5041993;28;20059;-80
2022/03/26 04:42:49;;;;;;;16.83;6.90;;;;;;;;;;5044611;28;20037;-80
2022/03/26 04:45:15;;;;;;;15.52;6.25;;;;;;;;;;5043725;28;20116;-80
2022/03/26 04:47:41;;;;;;;24.42;6.82;;;;;;;;;;5035858;28;20728;-80
2022/03/26 04:50:08;;;;;;;10.35;5.75;;;;;;;;;;5051055;28;20041;-80
2022/03/26 04:52:34;;;;;;;13.35;7.40;;;;;;;;;;5052491;28;20511;-80
2022/03/26 04:55:00;;;;;;;14.05;7.10;;;;;;;;;;5053272;28;20040;-79
2022/03/26 04:57:26;;;;;;;14.75;6.15;;;;;;;;;;5051532;28;20048;-80
2022/03/26 04:59:52;;;;;;;25.75;7.70;;;;;;;;;;5052529;28;20044;-80
2022/03/26 05:02:18;;;;;;;23.75;8.10;;;;;;;;;;5052945;28;20590;-80
2022/03/26 05:04:44;;;;;;;17.25;6.68;;;;;;;;;;5048712;28;20047;-80
2022/03/26 05:09:55;;;;;;;16.23;7.35;;;;;;;;;;5053837;28;20043;-80
2022/03/26 05:12:21;;;;;;;19.45;6.55;;;;;;;;;;5049128;28;20084;-80
2022/03/26 05:14:47;;;;;;;15.10;6.28;;;;;;;;;;5049285;28;20089;-80
2022/03/26 05:17:13;;;;;;;13.75;6.75;;;;;;;;;;5053684;28;20025;-79
2022/03/26 05:19:39;;;;;;;20.45;7.22;;;;;;;;;;5053089;28;20036;-80
2022/03/26 05:22:05;;;;;;;17.98;6.50;;;;;;;;;;5043430;28;20281;-80
2022/03/26 05:24:32;;;;;;;21.65;5.75;;;;;;;;;;5054123;28;20536;-80
2022/03/26 05:26:58;;;;;;;20.30;7.68;;;;;;;;;;5047705;28;20025;-80
2022/03/26 05:29:24;;;;;;;15.80;6.80;;;;;;;;;;5048700;28;20052;-79
2022/03/26 05:31:51;;;;;;;16.15;7.20;;;;;;;;;;5057787;28;20557;-79
2022/03/26 05:34:17;;;;;;;17.55;7.32;;;;;;;;;;5046621;28;20032;-79
2022/03/26 05:36:43;;;;;;;22.20;8.30;;;;;;;;;;5058864;28;20037;-80
2022/03/26 05:39:09;;;;;;;18.65;6.50;;;;;;;;;;5052694;28;20666;-79
2022/03/26 05:41:35;;;;;;;23.70;7.47;;;;;;;;;;5056960;28;20092;-80
2022/03/26 05:44:01;;;;;;;17.17;7.43;;;;;;;;;;5044819;28;20021;-80
2022/03/26 05:46:27;;;;;;;20.65;6.68;;;;;;;;;;5057085;28;20104;-81
2022/03/26 05:48:53;;;;;;;14.98;7.57;;;;;;;;;;5046523;28;20033;-79
2022/03/26 05:51:19;;;;;;;15.05;9.43;;;;;;;;;;5052359;28;20037;-80
2022/03/26 05:53:45;;;;;;;18.23;8.00;;;;;;;;;;5036549;28;20428;-83
2022/03/26 05:56:11;;;;;;;14.55;6.15;;;;;;;;;;5043686;28;20045;-82
2022/03/26 05:58:37;;;;;;;19.50;8.82;;;;;;;;;;5042929;28;20036;-81
2022/03/26 06:01:03;;;;;;;19.02;7.63;;;;;;;;;;5041653;28;20500;-82
2022/03/26 06:03:29;;;;;;;17.58;5.90;;;;;;;;;;5050293;28;20021;-79
2022/03/26 06:05:55;;;;;;;13.02;5.15;;;;;;;;;;5052237;28;20526;-79
2022/03/26 06:08:21;;;;;;;11.77;5.90;;;;;;;;;;5054046;28;20098;-79
2022/03/26 06:10:47;;;;;;;17.90;8.38;;;;;;;;;;5044239;28;20041;-80
2022/03/26 06:13:13;;;;;;;18.60;8.48;;;;;;;;;;5033997;28;20029;-78
2022/03/26 06:15:39;;;;;;;18.23;6.10;;;;;;;;;;5040093;28;24257;-80
2022/03/26 06:18:05;;;;;;;18.67;7.88;;;;;;;;;;5036607;28;20033;-79
2022/03/26 06:20:31;;;;;;;19.60;8.35;;;;;;;;;;5038903;28;20097;-79
2022/03/26 06:22:57;;;;;;;16.17;6.88;;;;;;;;;;5033384;28;20041;-79
2022/03/26 06:25:23;;;;;;;15.43;6.65;;;;;;;;;;5032293;28;20063;-78
2022/03/26 06:27:50;;;;;;;25.85;8.40;;;;;;;;;;5032559;28;20057;-80
2022/03/26 06:30:16;;;;;;;17.90;6.60;;;;;;;;;;5041831;28;20033;-79
2022/03/26 06:32:43;;;;;;;19.75;7.72;;;;;;;;;;5040465;28;20029;-79
2022/03/26 06:35:09;;;;;;;22.60;8.60;;;;;;;;;;5023737;28;20068;-79
2022/03/26 06:37:35;;;;;;;18.35;7.22;;;;;;;;;;5041567;28;20029;-78
2022/03/26 06:40:01;;;;;;;24.60;8.63;;;;;;;;;;5034811;28;20112;-78
2022/03/26 06:42:28;;;;;;;19.65;6.50;;;;;;;;;;5040457;28;20060;-78
2022/03/26 06:44:59;;;;;;;16.35;7.60;;;;;;;;;;5029082;28;20032;-78
2022/03/26 06:47:25;;;;;;;21.50;9.07;;;;;;;;;;5026100;28;20029;-78
2022/03/26 06:49:51;;;;;;;21.90;7.65;;;;;;;;;;5023691;28;20043;-79
2022/03/26 06:52:19;;;;;;;21.95;7.00;;;;;;;;;;5031360;28;20068;-79
2022/03/26 06:54:45;;;;;;;16.08;7.53;;;;;;;;;;5041632;28;20021;-79
2022/03/26 06:57:11;;;;;;;22.92;7.95;;;;;;;;;;5035383;28;20017;-78
2022/03/26 06:59:38;;;;;;;18.05;7.28;;;;;;;;;;5034715;28;20104;-78
2022/03/26 07:02:04;;;;;;;25.75;9.05;;;;;;;;;;5040303;28;20072;-78
2022/03/26 07:04:30;;;;;;;16.65;6.60;;;;;;;;;;5038040;28;20029;-78
2022/03/26 07:06:56;;;;;;;20.65;7.25;;;2.60;99.90;;;;;;5037406;28;20083;-79
2022/03/26 07:09:23;;;;;;;13.95;6.35;;;;;;;;;;5039281;28;20037;-78
2022/03/26 07:11:50;;;;;;;17.70;7.75;;;;;;;;;;5040390;28;20047;-78
2022/03/26 07:14:16;;;;;;;23.80;6.72;;;;;;;;;;5032010;28;20055;-79
2022/03/26 07:16:43;;;;;;;10.68;5.97;;;;;;;;;;5043809;28;20037;-79
2022/03/26 07:19:09;;;;;;;12.48;5.55;;;;;;;;;;5051136;28;20163;-79
2022/03/26 07:21:36;;;;;;;15.38;7.72;;;;;;;;;;5043743;28;20092;-79
2022/03/26 07:24:02;;;;;;;23.25;8.38;;;;;;;;;;5050858;28;20021;-79
2022/03/26 07:26:28;;;;;;;20.23;9.00;;;;;;;;;;5040743;28;20759;-80
2022/03/26 07:28:55;;;;;;;19.60;7.57;;;;;;;;;;5033599;28;20039;-79
2022/03/26 07:31:22;;;;;;;23.42;8.52;;;;;;;;;;5042698;28;20041;-80
2022/03/26 07:33:48;;;;;;;15.25;6.25;;;;;;;;;;5046050;28;20126;-80
2022/03/26 07:36:15;;;;;;;18.83;7.82;;;;;;;;;;5042998;28;20041;-79
2022/03/26 07:38:41;;;;;;;21.00;7.97;;;;;;;;;;5047408;28;20045;-79
2022/03/26 07:41:07;;;;;;;17.27;6.65;;;;;;;;;;5044582;28;20035;-80
2022/03/26 07:43:34;;;;;;;21.98;9.45;;;;;;;;;;5041727;28;20035;-80
2022/03/26 07:45:59;;;;;;;17.52;8.88;;;;;;;;;;5041970;28;20029;-79
2022/03/26 07:48:26;;;;;;;20.63;9.20;;;;;;;;;;5049304;28;20036;-79
2022/03/26 07:50:52;;;;;;;23.02;7.35;;;;;;;;;;5041181;28;20731;-80
2022/03/26 07:53:18;;;;;;;21.10;8.40;;;;;;;;;;5043010;28;20029;-79
2022/03/26 07:55:44;;;;;;;17.58;7.25;;;;;;;;;;5048694;28;20045;-80
2022/03/26 07:58:10;;;;;;;30.23;10.38;;;;;;;;;;5047317;28;20351;-79
2022/03/26 08:00:37;;;;;;;30.95;8.38;;;;;;;;;;5050633;28;20037;-79
2022/03/26 08:03:03;;;;;;;20.80;9.32;;;;;;;;;;5038969;28;20091;-77
2022/03/26 08:05:29;;;;;;;28.08;11.27;;;;;;;;;;5034803;28;20037;-79
2022/03/26 08:07:55;;;;;;;23.30;9.82;;;;;;;;;;5045190;28;20029;-79
2022/03/26 08:10:21;;;;;;;23.40;9.82;;;;;;;;;;5037932;28;20136;-79
2022/03/26 08:12:47;;;;;;;22.88;9.55;;;;;;;;;;5041168;28;20456;-77
2022/03/26 08:15:13;;;;;;;26.27;10.07;;;;;;;;;;5022303;28;20056;-80
2022/03/26 08:17:39;;;;;;;33.70;9.57;;;;;;;;;;5037166;28;20052;-80
2022/03/26 08:20:07;;;;;;;29.27;8.45;;;;;;;;;;5051187;28;20244;-80
2022/03/26 08:22:34;;;;;;;30.92;9.80;;;;;;;;;;5047424;28;20547;-80
2022/03/26 08:25:00;;;;;;;24.83;9.10;;;;;;;;;;5051129;28;20413;-81
2022/03/26 08:27:26;;;;;;;24.67;8.82;;;;;;;;;;5045475;28;20033;-80
2022/03/26 08:29:52;;;;;;;22.15;7.53;;;;;;;;;;5040168;28;23270;-80
2022/03/26 08:32:18;;;;;;;20.20;8.07;;;;;;;;;;5043163;28;20029;-82
2022/03/26 08:34:44;;;;;;;19.15;7.78;;;;;;;;;;5043083;28;20033;-79
2022/03/26 08:37:11;;;;;;;22.48;6.75;;;;;;;;;;5036770;28;20108;-81
2022/03/26 08:39:37;;;;;;;19.75;7.57;;;;;;;;;;5032845;28;20079;-79
2022/03/26 08:42:03;;;;;;;24.83;9.80;;;;;;;;;;5037791;28;20041;-79
2022/03/26 08:44:29;;;;;;;22.55;8.45;;;;;;;;;;5026997;28;20025;-79
2022/03/26 08:46:55;;;;;;;17.35;7.35;;;;;;;;;;5041783;28;20083;-79
2022/03/26 08:49:21;;;;;;;23.35;8.35;;;;;;;;;;5047247;28;20028;-79
2022/03/26 08:51:47;;;;;;;19.73;8.07;;;;;;;;;;5036065;28;20033;-79
2022/03/26 08:54:13;;;;;;;20.15;8.48;;;;;;;;;;5038034;28;20025;-79
2022/03/26 08:56:39;;;;;;;23.70;8.48;;;;;;;;;;5041430;28;20131;-80
2022/03/26 08:59:05;;;;;;;20.58;10.25;;;;;;;;;;5039634;28;20057;-79
2022/03/26 09:01:31;;;;;;;20.63;8.73;;;;;;;;;;5034601;28;21662;-78
2022/03/26 09:03:57;;;;;;;18.35;8.30;;;;;;;;;;5031287;28;21244;-78
2022/03/26 09:06:23;;;;;;;23.13;9.32;;;;;;;;;;5037270;28;20051;-80
2022/03/26 09:08:50;;;;;;;23.92;9.40;;;;;;;;;;5032154;28;21750;-79
2022/03/26 09:11:16;;;;;;;17.13;6.88;;;;;;;;;;5050811;28;21372;-79
2022/03/26 09:13:42;;;;;;;15.73;8.13;;;;;;;;;;5037738;28;20080;-79
2022/03/26 09:16:08;;;;;;;24.27;8.48;;;;;;;;;;5044317;28;20037;-79
2022/03/26 09:18:34;;;;;;;20.02;9.20;;;;;;;;;;5036748;28;20029;-79
2022/03/26 09:21:00;;;;;;;17.13;7.65;;;;;;;;;;5039971;28;20025;-80
2022/03/26 09:23:26;;;;;;;18.48;8.55;;;;;;;;;;5040056;28;21047;-80
2022/03/26 09:25:52;;;;;;;17.40;7.97;;;;;;;;;;5037361;28;20067;-79
2022/03/26 09:28:18;;;;;;;18.75;7.63;;;;;;;;;;5033740;28;20520;-79
2022/03/26 09:30:44;;;;;;;19.65;7.63;;;;;;;;;;5033490;28;20041;-78
2022/03/26 09:33:10;;;;;;;19.13;8.30;;;;;;;;;;5037715;28;20472;-78
2022/03/26 09:35:36;;;;;;;16.20;7.30;;;;;;;;;;5034955;28;20067;-79
2022/03/26 09:38:02;;;;;;;17.65;8.82;;;;;;;;;;5040101;28;20025;-77
2022/03/26 09:40:28;;;;;;;20.92;8.10;;;;;;;;;;5039796;28;20033;-78
2022/03/26 09:42:54;;;;;;;21.27;8.23;;;;;;;;;;5049194;28;20025;-77
2022/03/26 09:45:20;;;;;;;14.63;6.97;;;;;;;;;;5043705;28;20025;-78
2022/03/26 09:47:46;;;;;;;15.93;7.10;;;;;;;;;;5034460;28;20029;-78
2022/03/26 09:50:13;;;;;;;17.73;6.32;;;;;;;;;;5039251;28;20038;-78
2022/03/26 09:52:39;;;;;;;20.67;6.75;;;;;;;;;;5040663;28;20371;-78
2022/03/26 09:55:05;;;;;;;18.83;7.82;;;;;;;;;;5035367;28;21489;-78
2022/03/26 09:57:31;;;;;;;24.98;9.20;;;;;;;;;;5042618;28;20100;-80
2022/03/26 09:59:58;;;;;;;21.25;8.13;;;;;;;;;;5039860;28;20028;-79
2022/03/26 10:02:24;;;;;;;22.17;8.00;;;;;;;;;;5043537;28;20029;-79
2022/03/26 10:04:50;;;;;;;25.08;8.80;;;15.80;72.90;;;;;;5051111;28;20366;-80
2022/03/26 10:07:16;;;;;;;22.27;10.82;;;;;;;;;;5037890;28;20036;-78
2022/03/26 10:09:44;;;;;;;16.85;8.10;;;;;;;;;;5037914;28;20049;-78
2022/03/26 10:12:16;;;;;;;24.83;8.05;;;;;;;;;;5033826;28;20168;-78
2022/03/26 10:14:48;;;;;;;21.48;8.48;;;;;;;;;;5034702;28;20025;-78
2022/03/26 10:17:14;;;;;;;21.58;8.65;;;;;;;;;;5039831;28;20021;-81
2022/03/26 10:19:51;;;;;;;19.67;8.52;;;16.20;67.50;;;;;;5040137;28;20030;-79
2022/03/26 10:22:43;;;;;;;20.13;9.25;;;;;;;;;;5049593;28;20037;-81
2022/03/26 10:25:31;;;;;;;19.27;6.63;;;15.50;63.00;;;;;;5035256;28;20037;-79
2022/03/26 10:27:57;;;;;;;18.17;8.93;;;;;;;;;;5038754;28;20031;-80
2022/03/26 10:33:22;;;;;;;21.00;7.55;;;;;;;;;;5041562;28;20137;-80
2022/03/26 10:36:02;;;;;;;25.23;9.55;;;;;;;;;;5051796;28;20052;-79
2022/03/26 10:38:31;;;;;;;21.00;6.93;;;;;;;;;;5045001;28;20045;-80
2022/03/26 10:41:06;;;;;;;14.50;7.40;;;;;;;;;;5039459;28;20089;-79
2022/03/26 10:43:32;;;;;;;24.23;7.85;;;;;;;;;;5035669;28;20071;-79
2022/03/26 10:46:00;;;;;;;23.27;7.72;;;15.40;63.20;;;;;;5037631;28;20030;-78
2022/03/26 10:48:34;;;;;;;24.67;8.05;;;;;;;;;;5049020;28;20310;-80
2022/03/26 10:51:07;;;;;;;17.65;7.03;;;;;;;;;;5040149;28;20124;-80
2022/03/26 10:53:37;;;;;;;20.05;7.85;;;15.70;60.00;;;;;;5039074;28;20999;-80
2022/03/26 10:56:04;;;;;;;20.42;7.38;;;;;;;;;;5043073;28;20021;-79
2022/03/26 10:58:33;;;;;;;15.00;6.38;;;;;;;;;;5048565;28;20033;-79
2022/03/26 11:00:59;;;;;;;16.75;7.07;;;;;;;;;;5034097;28;20033;-77
2022/03/26 11:03:25;;;;;;;18.08;7.25;;;;;;;;;;5035735;28;20120;-79
2022/03/26 11:05:55;;;;;;;15.50;6.20;;;;;;;;;;5034273;28;20032;-77
2022/03/26 11:08:22;;;;;;;16.40;6.65;;;;;;;;;;5029020;28;20026;-78
2022/03/26 11:10:50;;;;;;;15.15;5.50;;;;;;;;;;5038825;28;20049;-76
2022/03/26 11:13:18;;;;;;;14.48;5.82;;;;;;;;;;5026871;28;20033;-76
2022/03/26 11:15:47;;;;;;;13.40;6.70;;;;;;;;;;5028930;28;20037;-75
2022/03/26 11:18:26;;;;;;;20.85;7.35;;;;;;;;;;5030663;28;20350;-78
2022/03/26 11:21:14;;;;;;;17.77;7.13;;;;;;;;;;5040786;28;20120;-77
2022/03/26 11:23:59;;;;;;;13.15;6.03;;;;;;;;;;5036299;28;20132;-77
2022/03/26 11:26:43;;;;;;;16.30;7.75;;;;;;;;;;5026371;28;20095;-77
2022/03/26 11:29:28;;;;;;;20.90;7.85;;;;;;;;;;5021406;28;20037;-78
2022/03/26 11:32:26;;;;;;;17.70;7.68;;;;;;;;;;5025080;28;20046;-78
2022/03/26 11:35:03;;;;;;;17.77;6.68;;;16.90;57.10;;;;;;5021417;28;20037;-77
2022/03/26 11:37:29;;;;;;;15.27;7.57;;;;;;;;;;5036215;28;20637;-77
2022/03/26 11:39:58;;;;;;;18.90;7.55;;;;;;;;;;5030378;28;20037;-78
2022/03/26 11:42:33;;;;;;;18.35;5.63;;;;;;;;;;5038488;28;20030;-77
2022/03/26 11:51:16;;;;;;;15.45;6.65;;;;;;;;;;5036405;28;20080;-78
2022/03/26 11:53:47;;;;;;;17.92;6.03;;;17.10;54.40;;;;;;5034455;28;20064;-77
2022/03/26 11:56:23;;;;;;;14.05;5.57;;;;;;;;;;5040422;28;20574;-78
2022/03/26 11:59:15;;;;;;;15.88;5.82;;;;;;;;;;5041822;28;20029;-78
2022/03/26 12:01:43;;;;;;;12.18;5.18;;;;;;;;;;5032722;28;20025;-78
2022/03/26 12:04:09;;;;;;;15.32;6.13;;;;;;;;;;5042003;28;20117;-78
2022/03/26 12:06:42;;;;;;;19.67;6.63;;;;;;;;;;5042712;28;20119;-78
2022/03/26 12:09:10;;;;;;;17.20;6.13;;;17.30;54.40;;;;;;5039998;28;20115;-78
2022/03/26 12:11:36;;;;;;;14.85;4.97;;;;;;;;;;5052213;28;20127;-78
2022/03/26 12:14:06;;;;;;;15.60;5.18;;;;;;;;;;5044576;28;20037;-78
2022/03/26 12:16:50;;;;;;;13.05;5.72;;;;;;;;;;5040391;28;20026;-78
2022/03/26 12:19:35;;;;;;;13.43;5.32;;;;;;;;;;5041985;28;20139;-78
2022/03/26 12:22:17;;;;;;;13.00;5.88;;;;;;;;;;5047288;28;20469;-78
2022/03/26 12:24:43;;;;;;;13.63;5.75;;;;;;;;;;5051103;28;20052;-80
2022/03/26 12:27:09;;;;;;;19.55;6.88;;;;;;;;;;5043859;28;20029;-79
2022/03/26 12:29:39;;;;;;;12.80;5.47;;;;;;;;;;5045321;28;20292;-79
2022/03/26 12:32:05;;;;;;;15.38;6.15;;;;;;;;;;5045553;28;20048;-79
2022/03/26 12:34:31;;;;;;;14.63;5.22;;;;;;;;;;5049179;28;21107;-78
2022/03/26 12:37:04;;;;;;;13.20;5.70;;;;;;;;;;5044776;28;20043;-79
2022/03/26 12:39:30;;;;;;;10.85;5.78;;;;;;;;;;5039528;28;20685;-80
2022/03/26 12:41:56;;;;;;;19.08;7.32;;;;;;;;;;5053479;28;22196;-80
2022/03/26 12:44:23;;;;;;;11.52;4.65;;;;;;;;;;5039366;28;20041;-80
2022/03/26 12:46:49;;;;;;;11.38;5.95;;;;;;;;;;5040823;28;20079;-79
2022/03/26 12:49:19;;;;;;;15.63;6.05;;;;;;;;;;5050801;28;20029;-78
2022/03/26 12:51:48;;;;;;;12.10;5.50;;;;;;;;;;5040938;28;20048;-78
2022/03/26 12:54:14;;;;;;;16.02;6.15;;;;;;;;;;5033214;28;20516;-80
2022/03/26 12:56:41;;;;;;;15.73;4.75;;;;;;;;;;5030298;28;20068;-80
2022/03/26 12:59:07;;;;;;;13.18;4.10;;;;;;;;;;5034389;28;20045;-80
2022/03/26 13:01:34;;;;;;;15.02;4.13;;;;;;;;;;5043406;28;20071;-78
2022/03/26 13:04:00;;;;;;;12.45;6.05;;;;;;;;;;5042673;28;20043;-78
2022/03/26 13:06:26;;;;;;;16.92;5.03;;;;;;;;;;5033970;28;20025;-80
2022/03/26 13:08:52;;;;;;;12.82;3.25;;;;;;;;;;5036384;28;20037;-78
2022/03/26 13:11:19;;;;;;;11.60;3.63;;;;;;;;;;5040859;28;20037;-78
2022/03/26 13:13:56;;;;;;;9.73;3.90;;;;;;;;;;5041131;28;20838;-80
2022/03/26 13:16:24;;;;;;;9.35;3.75;;;17.50;50.00;;;;;;5041421;28;20029;-78
2022/03/26 13:18:57;;;;;;;20.00;3.75;;;;;;;;;;5038484;28;20547;-78
2022/03/26 13:21:23;;;;;;;;;;;;;;;;;;5039141;28;20043;-79
2022/03/26 13:23:52;;;;;;;9.27;3.58;;;;;;;;;;5040846;28;19909;-78
2022/03/26 13:26:19;;;;;;;11.38;4.35;;;;;;;;;;5037234;28;20025;-81
2022/03/26 13:28:45;;;;;;;12.18;4.38;;;;;;;;;;5040957;28;20040;-78
2022/03/26 13:31:18;;;;;;;12.55;4.32;;;;;;;;;;5040371;28;20041;-78
2022/03/26 13:33:44;;;;;;;10.05;4.72;;;;;;;;;;5043790;28;20033;-78
2022/03/26 13:36:10;;;;;;;16.05;4.63;;;;;;;;;;5032364;28;20029;-78
2022/03/26 13:38:40;;;;;;;10.40;4.22;;;;;;;;;;5036954;28;20044;-77
2022/03/26 13:41:22;;;;;;;8.45;3.63;;;17.80;50.40;;;;;;5044889;28;20052;-77
2022/03/26 13:43:49;;;;;;;13.38;5.00;;;;;;;;;;5042109;28;20504;-77
2022/03/26 13:46:15;;;;;;;13.18;4.13;;;;;;;;;;5042494;28;20119;-78
2022/03/26 13:48:55;;;;;;;14.85;4.50;;;;;;;;;;5050671;28;20389;-78
2022/03/26 13:51:25;;;;;;;8.88;3.85;;;;;;;;;;5043145;28;20029;-77
2022/03/26 13:53:52;;;;;;;9.35;3.55;;;;;;;;;;5039676;28;20021;-77
2022/03/26 13:56:18;;;;;;;10.32;3.60;;;;;;;;;;5038091;28;20025;-77
2022/03/26 13:58:49;;;;;;;13.57;3.65;;;;;;;;;;5041338;28;20044;-78
2022/03/26 14:01:17;;;;;;;8.50;4.25;;;;;;;;;;5035693;28;20041;-78
2022/03/26 14:03:43;;;;;;;10.88;4.05;;;;;;;;;;5044251;28;20029;-77
2022/03/26 14:06:09;;;;;;;11.55;5.63;;;;;;;;;;5036767;28;20128;-78
2022/03/26 14:08:35;;;;;;;6.75;3.15;;;;;;;;;;5048036;28;20075;-79
2022/03/26 14:11:01;;;;;;;11.35;4.50;;;;;;;;;;5046706;28;20037;-78
2022/03/26 14:13:28;;;;;;;8.80;3.67;;;;;;;;;;5039105;28;20033;-76
2022/03/26 14:15:54;;;;;;;13.65;3.63;;;;;;;;;;5037481;28;20037;-77
2022/03/26 14:18:21;;;;;;;12.07;4.90;;;17.70;49.00;;;;;;5037757;28;20036;-78
2022/03/26 14:20:48;;;;;;;14.50;4.22;;;;;;;;;;5042204;28;20052;-78
2022/03/26 14:23:14;;;;;;;10.32;3.35;;;;;;;;;;5034155;28;20123;-78
2022/03/26 14:25:41;;;;;;;6.35;2.72;;;;;;;;;;5042709;28;20174;-78
2022/03/26 14:28:09;;;;;;;9.23;3.13;;;17.80;49.50;;;;;;5043585;28;20033;-78
2022/03/26 14:30:37;;;;;;;9.32;4.25;;;18.50;47.70;;;;;;5040184;28;20048;-78
2022/03/26 14:33:03;;;;;;;16.48;4.30;;;;;;;;;;5046938;28;20124;-78
2022/03/26 14:35:29;;;;;;;10.95;2.83;;;;;;;;;;5039934;28;20025;-79
2022/03/26 14:37:57;;;;;;;13.40;3.45;;;;;;;;;;5038578;28;20108;-78